sensor_id;sensor_type;location;lat;lon;timestamp;temperature;humidity
46730;DHT22;32476;50.002;11.854;2023-09-07T00:01:11;17.00;99.90
46730;DHT22;32476;50.002;11.854;2023-09-07T00:03:38;17.00;99.90
46730;DHT22;32476;50.002;11.854;2023-09-07T00:06:08;17.00;99.90
46730;DHT22;32476;50.002;11.854;2023-09-07T00:08:34;16.90;99.90
46730;DHT22;32476;50.002;11.854;2023-09-07T00:11:04;16.90;99.90
46730;DHT22;32476;50.002;11.854;2023-09-07T00:13:33;16.90;99.90
46730;DHT22;32476;50.002;11.854;2023-09-07T00:16:00;16.90;99.90
46730;DHT22;32476;50.002;11.854;2023-09-07T00:18:27;17.00;99.90
46730;DHT22;32476;50.002;11.854;2023-09-07T00:20:54;16.80;99.90
46730;DHT22;32476;50.002;11.854;2023-09-07T00:23:21;16.80;99.90
46730;DHT22;32476;50.002;11.854;2023-09-07T00:25:47;16.80;99.90
46730;DHT22;32476;50.002;11.854;2023-09-07T00:28:15;16.80;99.90
46730;DHT22;32476;50.002;11.854;2023-09-07T00:30:40;16.70;99.90
46730;DHT22;32476;50.002;11.854;2023-09-07T00:33:07;16.70;99.90
46730;DHT22;32476;50.002;11.854;2023-09-07T00:35:35;16.70;99.90
46730;DHT22;32476;50.002;11.854;2023-09-07T00:38:01;16.70;99.90
46730;DHT22;32476;50.002;11.854;2023-09-07T00:40:27;16.70;99.90
46730;DHT22;32476;50.002;11.854;2023-09-07T00:42:54;16.80;99.90
46730;DHT22;32476;50.002;11.854;2023-09-07T00:45:20;16.70;99.90
46730;DHT22;32476;50.002;11.854;2023-09-07T00:47:46;16.70;99.90
46730;DHT22;32476;50.002;11.854;2023-09-07T00:50:14;16.70;99.90
46730;DHT22;32476;50.002;11.854;2023-09-07T00:52:47;16.70;99.90
46730;DHT22;32476;50.002;11.854;2023-09-07T00:55:15;16.90;99.90
46730;DHT22;32476;50.002;11.854;2023-09-07T00:57:40;16.80;99.90
46730;DHT22;32476;50.002;11.854;2023-09-07T01:00:08;16.70;99.90
46730;DHT22;32476;50.002;11.854;2023-09-07T01:02:36;16.70;99.90
46730;DHT22;32476;50.002;11.854;2023-09-07T01:05:02;16.70;99.90
46730;DHT22;32476;50.002;11.854;2023-09-07T01:07:44;16.70;99.90
46730;DHT22;32476;50.002;11.854;2023-09-07T01:10:14;16.60;99.90
46730;DHT22;32476;50.002;11.854;2023-09-07T01:12:40;16.50;99.90
46730;DHT22;32476;50.002;11.854;2023-09-07T01:15:07;16.40;99.90
46730;DHT22;32476;50.002;11.854;2023-09-07T01:17:35;16.40;99.90
46730;DHT22;32476;50.002;11.854;2023-09-07T01:20:05;16.40;99.90
46730;DHT22;32476;50.002;11.854;2023-09-07T01:22:37;16.30;99.90
46730;DHT22;32476;50.002;11.854;2023-09-07T01:25:05;16.40;99.90
46730;DHT22;32476;50.002;11.854;2023-09-07T01:27:33;16.30;99.90
46730;DHT22;32476;50.002;11.854;2023-09-07T01:30:02;16.20;99.90
46730;DHT22;32476;50.002;11.854;2023-09-07T01:32:28;16.30;99.90
46730;DHT22;32476;50.002;11.854;2023-09-07T01:34:57;16.20;99.90
46730;DHT22;32476;50.002;11.854;2023-09-07T01:37:25;16.30;99.90
46730;DHT22;32476;50.002;11.854;2023-09-07T01:39:50;16.20;99.90
46730;DHT22;32476;50.002;11.854;2023-09-07T01:42:16;16.20;99.90
46730;DHT22;32476;50.002;11.854;2023-09-07T01:44:44;16.20;99.90
46730;DHT22;32476;50.002;11.854;2023-09-07T01:47:10;16.20;99.90
46730;DHT22;32476;50.002;11.854;2023-09-07T01:49:36;16.10;99.90
46730;DHT22;32476;50.002;11.854;2023-09-07T01:52:04;16.10;99.90
46730;DHT22;32476;50.002;11.854;2023-09-07T01:54:30;16.10;99.90
46730;DHT22;32476;50.002;11.854;2023-09-07T01:56:56;15.90;99.90
46730;DHT22;32476;50.002;11.854;2023-09-07T01:59:23;15.90;99.90
46730;DHT22;32476;50.002;11.854;2023-09-07T02:01:49;16.00;99.90
46730;DHT22;32476;50.002;11.854;2023-09-07T02:04:15;15.90;99.90
46730;DHT22;32476;50.002;11.854;2023-09-07T02:06:43;15.80;99.90
46730;DHT22;32476;50.002;11.854;2023-09-07T02:09:09;15.70;99.90
46730;DHT22;32476;50.002;11.854;2023-09-07T02:11:35;15.60;99.90
46730;DHT22;32476;50.002;11.854;2023-09-07T02:14:02;15.60;99.90
46730;DHT22;32476;50.002;11.854;2023-09-07T02:16:28;15.70;99.90
46730;DHT22;32476;50.002;11.854;2023-09-07T02:19:01;15.50;99.90
46730;DHT22;32476;50.002;11.854;2023-09-07T02:21:31;15.60;99.90
46730;DHT22;32476;50.002;11.854;2023-09-07T02:23:57;15.60;99.90
46730;DHT22;32476;50.002;11.854;2023-09-07T02:26:23;15.60;99.90
46730;DHT22;32476;50.002;11.854;2023-09-07T02:28:50;15.70;99.90
46730;DHT22;32476;50.002;11.854;2023-09-07T02:31:16;15.60;99.90
46730;DHT22;32476;50.002;11.854;2023-09-07T02:33:42;15.70;99.90
46730;DHT22;32476;50.002;11.854;2023-09-07T02:36:10;15.70;99.90
46730;DHT22;32476;50.002;11.854;2023-09-07T02:38:36;15.70;99.90
46730;DHT22;32476;50.002;11.854;2023-09-07T02:41:01;15.70;99.90
46730;DHT22;32476;50.002;11.854;2023-09-07T02:43:29;15.70;99.90
46730;DHT22;32476;50.002;11.854;2023-09-07T02:45:55;15.70;99.90
46730;DHT22;32476;50.002;11.854;2023-09-07T02:48:21;15.70;99.90
46730;DHT22;32476;50.002;11.854;2023-09-07T02:50:49;15.70;99.90
46730;DHT22;32476;50.002;11.854;2023-09-07T02:53:16;15.70;99.90
46730;DHT22;32476;50.002;11.854;2023-09-07T02:55:42;15.80;99.90
46730;DHT22;32476;50.002;11.854;2023-09-07T02:58:09;15.80;99.90
46730;DHT22;32476;50.002;11.854;2023-09-07T03:00:41;15.70;99.90
46730;DHT22;32476;50.002;11.854;2023-09-07T03:03:11;15.70;99.90
46730;DHT22;32476;50.002;11.854;2023-09-07T03:05:42;15.70;99.90
46730;DHT22;32476;50.002;11.854;2023-09-07T03:08:09;15.70;99.90
46730;DHT22;32476;50.002;11.854;2023-09-07T03:10:37;15.70;99.90
46730;DHT22;32476;50.002;11.854;2023-09-07T03:13:06;15.70;99.90
46730;DHT22;32476;50.002;11.854;2023-09-07T03:15:32;15.70;99.90
46730;DHT22;32476;50.002;11.854;2023-09-07T03:18:00;15.60;99.90
46730;DHT22;32476;50.002;11.854;2023-09-07T03:20:26;15.70;99.90
46730;DHT22;32476;50.002;11.854;2023-09-07T03:22:53;15.70;99.90
46730;DHT22;32476;50.002;11.854;2023-09-07T03:25:20;15.70;99.90
46730;DHT22;32476;50.002;11.854;2023-09-07T03:27:46;15.70;99.90
46730;DHT22;32476;50.002;11.854;2023-09-07T03:30:12;15.70;99.90
46730;DHT22;32476;50.002;11.854;2023-09-07T03:32:39;15.60;99.90
46730;DHT22;32476;50.002;11.854;2023-09-07T03:35:05;15.60;99.90
46730;DHT22;32476;50.002;11.854;2023-09-07T03:37:36;15.60;99.90
46730;DHT22;32476;50.002;11.854;2023-09-07T03:40:05;15.70;99.90
46730;DHT22;32476;50.002;11.854;2023-09-07T03:42:31;15.60;99.90
46730;DHT22;32476;50.002;11.854;2023-09-07T03:44:57;15.60;99.90
46730;DHT22;32476;50.002;11.854;2023-09-07T03:47:24;15.60;99.90
46730;DHT22;32476;50.002;11.854;2023-09-07T03:49:55;15.60;99.90
46730;DHT22;32476;50.002;11.854;2023-09-07T03:52:24;15.50;99.90
46730;DHT22;32476;50.002;11.854;2023-09-07T03:54:54;15.50;99.90
46730;DHT22;32476;50.002;11.854;2023-09-07T03:57:21;15.40;99.90
46730;DHT22;32476;50.002;11.854;2023-09-07T03:59:48;15.50;99.90
46730;DHT22;32476;50.002;11.854;2023-09-07T04:02:15;15.50;99.90
46730;DHT22;32476;50.002;11.854;2023-09-07T04:04:43;15.50;99.90
46730;DHT22;32476;50.002;11.854;2023-09-07T04:07:11;15.50;99.90
46730;DHT22;32476;50.002;11.854;2023-09-07T04:09:37;15.60;99.90
46730;DHT22;32476;50.002;11.854;2023-09-07T04:12:03;15.50;99.90
46730;DHT22;32476;50.002;11.854;2023-09-07T04:14:30;15.50;99.90
46730;DHT22;32476;50.002;11.854;2023-09-07T04:16:57;15.50;99.90
46730;DHT22;32476;50.002;11.854;2023-09-07T04:19:23;15.40;99.90
46730;DHT22;32476;50.002;11.854;2023-09-07T04:21:50;15.40;99.90
46730;DHT22;32476;50.002;11.854;2023-09-07T04:24:17;15.40;99.90
46730;DHT22;32476;50.002;11.854;2023-09-07T04:26:43;15.30;99.90
46730;DHT22;32476;50.002;11.854;2023-09-07T04:29:10;15.40;99.90
46730;DHT22;32476;50.002;11.854;2023-09-07T04:31:38;15.40;99.90
46730;DHT22;32476;50.002;11.854;2023-09-07T04:34:04;15.40;99.90
46730;DHT22;32476;50.002;11.854;2023-09-07T04:36:32;15.40;99.90
46730;DHT22;32476;50.002;11.854;2023-09-07T04:38:57;15.30;99.90
46730;DHT22;32476;50.002;11.854;2023-09-07T04:41:23;15.30;99.90
46730;DHT22;32476;50.002;11.854;2023-09-07T04:43:51;15.30;99.90
46730;DHT22;32476;50.002;11.854;2023-09-07T04:46:17;15.40;99.90
46730;DHT22;32476;50.002;11.854;2023-09-07T04:48:46;15.30;99.90
46730;DHT22;32476;50.002;11.854;2023-09-07T04:51:14;15.30;99.90
46730;DHT22;32476;50.002;11.854;2023-09-07T04:53:40;15.30;99.90
46730;DHT22;32476;50.002;11.854;2023-09-07T04:56:07;15.40;99.90
46730;DHT22;32476;50.002;11.854;2023-09-07T04:58:35;15.20;99.90
46730;DHT22;32476;50.002;11.854;2023-09-07T05:01:05;15.20;99.90
46730;DHT22;32476;50.002;11.854;2023-09-07T05:03:36;15.20;99.90
46730;DHT22;32476;50.002;11.854;2023-09-07T05:06:03;15.10;99.90
46730;DHT22;32476;50.002;11.854;2023-09-07T05:08:30;15.20;99.90
46730;DHT22;32476;50.002;11.854;2023-09-07T05:10:59;15.20;99.90
46730;DHT22;32476;50.002;11.854;2023-09-07T05:13:26;15.20;99.90
46730;DHT22;32476;50.002;11.854;2023-09-07T05:15:54;15.20;99.90
46730;DHT22;32476;50.002;11.854;2023-09-07T05:18:22;15.20;99.90
46730;DHT22;32476;50.002;11.854;2023-09-07T05:20:48;15.20;99.90
46730;DHT22;32476;50.002;11.854;2023-09-07T05:23:20;15.20;99.90
46730;DHT22;32476;50.002;11.854;2023-09-07T05:25:50;15.30;99.90
46730;DHT22;32476;50.002;11.854;2023-09-07T05:28:19;15.20;99.90
46730;DHT22;32476;50.002;11.854;2023-09-07T05:30:45;15.10;99.90
46730;DHT22;32476;50.002;11.854;2023-09-07T05:33:15;15.10;99.90
46730;DHT22;32476;50.002;11.854;2023-09-07T05:35:41;15.00;99.90
46730;DHT22;32476;50.002;11.854;2023-09-07T05:38:08;15.00;99.90
46730;DHT22;32476;50.002;11.854;2023-09-07T05:40:40;15.00;99.90
46730;DHT22;32476;50.002;11.854;2023-09-07T05:43:08;15.00;99.90
46730;DHT22;32476;50.002;11.854;2023-09-07T05:45:40;15.10;99.90
46730;DHT22;32476;50.002;11.854;2023-09-07T05:48:07;15.30;99.90
46730;DHT22;32476;50.002;11.854;2023-09-07T05:50:35;15.40;99.90
46730;DHT22;32476;50.002;11.854;2023-09-07T05:53:03;15.50;99.90
46730;DHT22;32476;50.002;11.854;2023-09-07T05:55:29;15.50;99.90
46730;DHT22;32476;50.002;11.854;2023-09-07T05:57:56;15.60;99.90
46730;DHT22;32476;50.002;11.854;2023-09-07T06:00:25;15.60;99.90
46730;DHT22;32476;50.002;11.854;2023-09-07T06:02:51;15.60;99.90
46730;DHT22;32476;50.002;11.854;2023-09-07T06:05:17;15.60;99.90
46730;DHT22;32476;50.002;11.854;2023-09-07T06:07:46;15.80;99.90
46730;DHT22;32476;50.002;11.854;2023-09-07T06:10:12;15.80;99.90
46730;DHT22;32476;50.002;11.854;2023-09-07T06:12:38;15.80;99.90
46730;DHT22;32476;50.002;11.854;2023-09-07T06:15:07;15.90;99.90
46730;DHT22;32476;50.002;11.854;2023-09-07T06:17:33;16.00;99.90
46730;DHT22;32476;50.002;11.854;2023-09-07T06:19:59;16.10;99.90
46730;DHT22;32476;50.002;11.854;2023-09-07T06:22:26;16.40;99.90
46730;DHT22;32476;50.002;11.854;2023-09-07T06:24:52;16.60;99.90
46730;DHT22;32476;50.002;11.854;2023-09-07T06:27:18;16.80;99.90
46730;DHT22;32476;50.002;11.854;2023-09-07T06:29:46;17.10;99.90
46730;DHT22;32476;50.002;11.854;2023-09-07T06:32:12;17.20;99.90
46730;DHT22;32476;50.002;11.854;2023-09-07T06:34:38;17.30;99.90
46730;DHT22;32476;50.002;11.854;2023-09-07T06:37:06;17.50;99.90
46730;DHT22;32476;50.002;11.854;2023-09-07T06:39:32;17.60;99.90
46730;DHT22;32476;50.002;11.854;2023-09-07T06:41:58;17.70;99.90
46730;DHT22;32476;50.002;11.854;2023-09-07T06:44:26;17.80;99.90
46730;DHT22;32476;50.002;11.854;2023-09-07T06:46:52;17.90;99.90
46730;DHT22;32476;50.002;11.854;2023-09-07T06:49:18;18.00;99.90
46730;DHT22;32476;50.002;11.854;2023-09-07T06:51:46;18.20;99.90
46730;DHT22;32476;50.002;11.854;2023-09-07T06:54:12;18.40;99.90
46730;DHT22;32476;50.002;11.854;2023-09-07T06:56:38;18.40;99.90
46730;DHT22;32476;50.002;11.854;2023-09-07T06:59:06;18.50;99.90
46730;DHT22;32476;50.002;11.854;2023-09-07T07:01:32;18.70;99.90
46730;DHT22;32476;50.002;11.854;2023-09-07T07:03:57;18.90;99.90
46730;DHT22;32476;50.002;11.854;2023-09-07T07:06:25;19.00;99.90
46730;DHT22;32476;50.002;11.854;2023-09-07T07:08:52;18.90;99.90
46730;DHT22;32476;50.002;11.854;2023-09-07T07:11:19;19.00;99.90
46730;DHT22;32476;50.002;11.854;2023-09-07T07:13:46;19.10;99.90
46730;DHT22;32476;50.002;11.854;2023-09-07T07:16:12;19.30;99.90
46730;DHT22;32476;50.002;11.854;2023-09-07T07:18:39;19.50;99.90
46730;DHT22;32476;50.002;11.854;2023-09-07T07:21:06;19.60;99.90
46730;DHT22;32476;50.002;11.854;2023-09-07T07:23:35;19.50;99.90
46730;DHT22;32476;50.002;11.854;2023-09-07T07:26:02;19.20;99.90
46730;DHT22;32476;50.002;11.854;2023-09-07T07:28:29;19.50;99.90
46730;DHT22;32476;50.002;11.854;2023-09-07T07:30:55;19.70;99.90
46730;DHT22;32476;50.002;11.854;2023-09-07T07:33:21;19.60;99.90
46730;DHT22;32476;50.002;11.854;2023-09-07T07:35:49;19.80;99.90
46730;DHT22;32476;50.002;11.854;2023-09-07T07:38:15;19.90;99.90
46730;DHT22;32476;50.002;11.854;2023-09-07T07:40:41;20.10;99.90
46730;DHT22;32476;50.002;11.854;2023-09-07T07:43:09;20.20;99.90
46730;DHT22;32476;50.002;11.854;2023-09-07T07:45:36;20.30;99.90
46730;DHT22;32476;50.002;11.854;2023-09-07T07:48:04;20.40;99.90
46730;DHT22;32476;50.002;11.854;2023-09-07T07:50:38;20.40;99.90
46730;DHT22;32476;50.002;11.854;2023-09-07T07:56:15;20.50;99.90
46730;DHT22;32476;50.002;11.854;2023-09-07T07:58:43;20.80;99.90
46730;DHT22;32476;50.002;11.854;2023-09-07T08:01:19;20.90;99.90
46730;DHT22;32476;50.002;11.854;2023-09-07T08:03:47;21.00;99.90
46730;DHT22;32476;50.002;11.854;2023-09-07T08:06:14;21.10;99.90
46730;DHT22;32476;50.002;11.854;2023-09-07T08:08:40;21.20;99.90
46730;DHT22;32476;50.002;11.854;2023-09-07T08:11:08;21.10;99.90
46730;DHT22;32476;50.002;11.854;2023-09-07T08:13:34;21.30;99.90
46730;DHT22;32476;50.002;11.854;2023-09-07T08:16:01;21.60;99.90
46730;DHT22;32476;50.002;11.854;2023-09-07T08:18:29;21.50;99.90
46730;DHT22;32476;50.002;11.854;2023-09-07T08:20:58;21.70;99.90
46730;DHT22;32476;50.002;11.854;2023-09-07T08:23:24;22.10;99.90
46730;DHT22;32476;50.002;11.854;2023-09-07T08:25:52;22.30;99.90
46730;DHT22;32476;50.002;11.854;2023-09-07T08:28:18;22.20;99.90
46730;DHT22;32476;50.002;11.854;2023-09-07T08:30:48;22.00;99.90
46730;DHT22;32476;50.002;11.854;2023-09-07T08:33:17;22.00;99.90
46730;DHT22;32476;50.002;11.854;2023-09-07T08:35:42;22.20;99.90
46730;DHT22;32476;50.002;11.854;2023-09-07T08:38:12;22.20;99.90
46730;DHT22;32476;50.002;11.854;2023-09-07T08:40:40;22.60;99.90
46730;DHT22;32476;50.002;11.854;2023-09-07T08:43:09;22.70;99.90
46730;DHT22;32476;50.002;11.854;2023-09-07T08:45:41;23.00;99.90
46730;DHT22;32476;50.002;11.854;2023-09-07T08:48:13;23.20;99.90
46730;DHT22;32476;50.002;11.854;2023-09-07T08:50:45;23.00;99.90
46730;DHT22;32476;50.002;11.854;2023-09-07T08:53:21;23.00;99.90
46730;DHT22;32476;50.002;11.854;2023-09-07T08:55:48;22.90;99.90
46730;DHT22;32476;50.002;11.854;2023-09-07T08:58:14;23.00;99.90
46730;DHT22;32476;50.002;11.854;2023-09-07T09:00:42;22.90;99.90
46730;DHT22;32476;50.002;11.854;2023-09-07T09:03:09;23.00;99.90
46730;DHT22;32476;50.002;11.854;2023-09-07T09:05:39;22.90;99.90
46730;DHT22;32476;50.002;11.854;2023-09-07T09:08:06;23.50;99.90
46730;DHT22;32476;50.002;11.854;2023-09-07T09:10:32;23.80;99.90
46730;DHT22;32476;50.002;11.854;2023-09-07T09:13:00;23.70;99.90
46730;DHT22;32476;50.002;11.854;2023-09-07T09:15:26;23.80;99.90
46730;DHT22;32476;50.002;11.854;2023-09-07T09:17:55;23.70;99.70
46730;DHT22;32476;50.002;11.854;2023-09-07T09:20:24;23.90;99.90
46730;DHT22;32476;50.002;11.854;2023-09-07T09:22:54;24.30;99.90
46730;DHT22;32476;50.002;11.854;2023-09-07T09:25:22;24.20;99.90
46730;DHT22;32476;50.002;11.854;2023-09-07T09:27:48;24.70;99.90
46730;DHT22;32476;50.002;11.854;2023-09-07T09:30:14;25.00;99.60
46730;DHT22;32476;50.002;11.854;2023-09-07T09:32:43;24.80;95.70
46730;DHT22;32476;50.002;11.854;2023-09-07T09:35:09;24.90;98.60
46730;DHT22;32476;50.002;11.854;2023-09-07T09:37:48;24.80;96.80
46730;DHT22;32476;50.002;11.854;2023-09-07T09:40:16;24.60;96.20
46730;DHT22;32476;50.002;11.854;2023-09-07T09:42:43;24.80;95.90
46730;DHT22;32476;50.002;11.854;2023-09-07T09:45:11;24.70;95.20
46730;DHT22;32476;50.002;11.854;2023-09-07T09:47:40;24.90;97.70
46730;DHT22;32476;50.002;11.854;2023-09-07T09:50:10;24.30;97.70
46730;DHT22;32476;50.002;11.854;2023-09-07T09:52:38;24.80;99.20
46730;DHT22;32476;50.002;11.854;2023-09-07T09:55:05;24.90;98.10
46730;DHT22;32476;50.002;11.854;2023-09-07T09:57:35;24.50;98.10
46730;DHT22;32476;50.002;11.854;2023-09-07T10:00:04;24.30;97.80
46730;DHT22;32476;50.002;11.854;2023-09-07T10:02:49;24.50;97.50
46730;DHT22;32476;50.002;11.854;2023-09-07T10:05:31;24.80;97.50
46730;DHT22;32476;50.002;11.854;2023-09-07T10:08:08;25.10;97.30
46730;DHT22;32476;50.002;11.854;2023-09-07T10:10:37;25.30;97.50
46730;DHT22;32476;50.002;11.854;2023-09-07T10:13:05;25.60;98.30
46730;DHT22;32476;50.002;11.854;2023-09-07T10:15:31;25.80;97.00
46730;DHT22;32476;50.002;11.854;2023-09-07T10:18:14;26.00;96.00
46730;DHT22;32476;50.002;11.854;2023-09-07T10:20:57;26.20;94.40
46730;DHT22;32476;50.002;11.854;2023-09-07T10:23:39;26.20;94.10
46730;DHT22;32476;50.002;11.854;2023-09-07T10:26:19;26.50;94.00
46730;DHT22;32476;50.002;11.854;2023-09-07T10:28:59;26.80;93.20
46730;DHT22;32476;50.002;11.854;2023-09-07T10:31:27;26.30;88.30
46730;DHT22;32476;50.002;11.854;2023-09-07T10:33:54;26.20;86.20
46730;DHT22;32476;50.002;11.854;2023-09-07T10:36:27;26.70;87.50
46730;DHT22;32476;50.002;11.854;2023-09-07T10:38:56;26.60;88.20
46730;DHT22;32476;50.002;11.854;2023-09-07T10:41:22;26.50;89.60
46730;DHT22;32476;50.002;11.854;2023-09-07T10:46:21;27.00;83.60
46730;DHT22;32476;50.002;11.854;2023-09-07T10:48:54;27.00;84.00
46730;DHT22;32476;50.002;11.854;2023-09-07T10:51:23;26.90;83.90
46730;DHT22;32476;50.002;11.854;2023-09-07T10:53:49;27.00;82.70
46730;DHT22;32476;50.002;11.854;2023-09-07T10:56:15;27.30;82.50
46730;DHT22;32476;50.002;11.854;2023-09-07T10:58:42;26.90;78.70
46730;DHT22;32476;50.002;11.854;2023-09-07T11:01:09;26.90;82.10
46730;DHT22;32476;50.002;11.854;2023-09-07T11:03:37;27.00;79.10
46730;DHT22;32476;50.002;11.854;2023-09-07T11:06:12;27.00;79.70
46730;DHT22;32476;50.002;11.854;2023-09-07T11:08:48;27.20;82.00
46730;DHT22;32476;50.002;11.854;2023-09-07T11:11:16;27.40;78.20
46730;DHT22;32476;50.002;11.854;2023-09-07T11:13:42;27.10;78.30
46730;DHT22;32476;50.002;11.854;2023-09-07T11:16:09;27.20;80.00
46730;DHT22;32476;50.002;11.854;2023-09-07T11:18:36;27.00;79.90
46730;DHT22;32476;50.002;11.854;2023-09-07T11:21:02;27.40;81.10
46730;DHT22;32476;50.002;11.854;2023-09-07T11:23:31;27.70;81.10
46730;DHT22;32476;50.002;11.854;2023-09-07T11:26:05;27.70;78.90
46730;DHT22;32476;50.002;11.854;2023-09-07T11:28:33;27.20;79.00
46730;DHT22;32476;50.002;11.854;2023-09-07T11:30:59;27.50;83.80
46730;DHT22;32476;50.002;11.854;2023-09-07T11:33:31;27.70;84.70
46730;DHT22;32476;50.002;11.854;2023-09-07T11:35:58;27.70;81.90
46730;DHT22;32476;50.002;11.854;2023-09-07T11:38:29;27.60;81.50
46730;DHT22;32476;50.002;11.854;2023-09-07T11:41:02;27.60;79.60
46730;DHT22;32476;50.002;11.854;2023-09-07T11:43:29;27.70;78.90
46730;DHT22;32476;50.002;11.854;2023-09-07T11:45:55;27.90;80.90
46730;DHT22;32476;50.002;11.854;2023-09-07T11:48:22;28.10;77.40
46730;DHT22;32476;50.002;11.854;2023-09-07T11:50:48;28.10;77.30
46730;DHT22;32476;50.002;11.854;2023-09-07T11:53:14;27.60;79.30
46730;DHT22;32476;50.002;11.854;2023-09-07T11:55:41;27.80;80.00
46730;DHT22;32476;50.002;11.854;2023-09-07T11:58:09;28.20;80.20
46730;DHT22;32476;50.002;11.854;2023-09-07T12:00:34;28.30;76.00
46730;DHT22;32476;50.002;11.854;2023-09-07T12:03:03;28.50;75.40
46730;DHT22;32476;50.002;11.854;2023-09-07T12:05:29;28.20;74.40
46730;DHT22;32476;50.002;11.854;2023-09-07T12:07:56;28.50;75.90
46730;DHT22;32476;50.002;11.854;2023-09-07T12:10:23;27.40;74.20
46730;DHT22;32476;50.002;11.854;2023-09-07T12:12:49;27.50;76.10
46730;DHT22;32476;50.002;11.854;2023-09-07T12:15:15;27.70;75.70
46730;DHT22;32476;50.002;11.854;2023-09-07T12:17:42;28.20;74.60
46730;DHT22;32476;50.002;11.854;2023-09-07T12:20:09;28.20;78.70
46730;DHT22;32476;50.002;11.854;2023-09-07T12:22:36;28.20;76.60
46730;DHT22;32476;50.002;11.854;2023-09-07T12:25:05;28.20;75.40
46730;DHT22;32476;50.002;11.854;2023-09-07T12:27:36;28.50;74.90
46730;DHT22;32476;50.002;11.854;2023-09-07T12:30:04;28.90;74.90
46730;DHT22;32476;50.002;11.854;2023-09-07T12:32:34;28.80;69.50
46730;DHT22;32476;50.002;11.854;2023-09-07T12:35:00;28.40;71.30
46730;DHT22;32476;50.002;11.854;2023-09-07T12:37:27;28.30;69.00
46730;DHT22;32476;50.002;11.854;2023-09-07T12:39:53;28.40;69.60
46730;DHT22;32476;50.002;11.854;2023-09-07T12:42:19;28.60;71.60
46730;DHT22;32476;50.002;11.854;2023-09-07T12:44:46;29.10;72.10
46730;DHT22;32476;50.002;11.854;2023-09-07T12:47:12;29.30;72.10
46730;DHT22;32476;50.002;11.854;2023-09-07T12:49:38;29.00;69.40
46730;DHT22;32476;50.002;11.854;2023-09-07T12:52:05;29.10;69.00
46730;DHT22;32476;50.002;11.854;2023-09-07T12:54:37;29.00;70.90
46730;DHT22;32476;50.002;11.854;2023-09-07T12:57:04;28.90;71.90
46730;DHT22;32476;50.002;11.854;2023-09-07T12:59:31;29.20;69.30
46730;DHT22;32476;50.002;11.854;2023-09-07T13:01:57;29.20;72.20
46730;DHT22;32476;50.002;11.854;2023-09-07T13:04:23;29.10;70.40
46730;DHT22;32476;50.002;11.854;2023-09-07T13:06:50;28.90;71.90
46730;DHT22;32476;50.002;11.854;2023-09-07T13:09:16;28.30;68.90
46730;DHT22;32476;50.002;11.854;2023-09-07T13:11:43;28.40;72.60
46730;DHT22;32476;50.002;11.854;2023-09-07T13:14:10;28.90;74.70
46730;DHT22;32476;50.002;11.854;2023-09-07T13:16:36;29.30;67.20
46730;DHT22;32476;50.002;11.854;2023-09-07T13:19:03;29.50;68.10
46730;DHT22;32476;50.002;11.854;2023-09-07T13:21:29;29.50;71.30
46730;DHT22;32476;50.002;11.854;2023-09-07T13:23:57;29.10;68.20
46730;DHT22;32476;50.002;11.854;2023-09-07T13:26:23;28.90;65.40
46730;DHT22;32476;50.002;11.854;2023-09-07T13:28:49;29.00;67.40
46730;DHT22;32476;50.002;11.854;2023-09-07T13:31:17;29.20;67.80
46730;DHT22;32476;50.002;11.854;2023-09-07T13:33:42;29.30;68.40
46730;DHT22;32476;50.002;11.854;2023-09-07T13:36:08;29.10;67.40
46730;DHT22;32476;50.002;11.854;2023-09-07T13:38:37;29.20;66.60
46730;DHT22;32476;50.002;11.854;2023-09-07T13:41:03;29.10;66.20
46730;DHT22;32476;50.002;11.854;2023-09-07T13:43:29;29.00;68.50
46730;DHT22;32476;50.002;11.854;2023-09-07T13:45:57;29.00;66.30
46730;DHT22;32476;50.002;11.854;2023-09-07T13:48:23;28.70;69.20
46730;DHT22;32476;50.002;11.854;2023-09-07T13:50:48;29.10;71.80
46730;DHT22;32476;50.002;11.854;2023-09-07T13:53:16;29.50;70.20
46730;DHT22;32476;50.002;11.854;2023-09-07T13:55:42;29.80;70.20
46730;DHT22;32476;50.002;11.854;2023-09-07T13:58:09;29.50;70.20
46730;DHT22;32476;50.002;11.854;2023-09-07T14:00:37;29.70;68.50
46730;DHT22;32476;50.002;11.854;2023-09-07T14:03:04;29.50;70.70
46730;DHT22;32476;50.002;11.854;2023-09-07T14:05:30;29.30;68.00
46730;DHT22;32476;50.002;11.854;2023-09-07T14:07:58;29.30;69.80
46730;DHT22;32476;50.002;11.854;2023-09-07T14:10:24;29.60;68.90
46730;DHT22;32476;50.002;11.854;2023-09-07T14:12:49;29.50;67.30
46730;DHT22;32476;50.002;11.854;2023-09-07T14:15:17;29.50;69.10
46730;DHT22;32476;50.002;11.854;2023-09-07T14:17:43;29.30;66.00
46730;DHT22;32476;50.002;11.854;2023-09-07T14:20:09;29.20;68.60
46730;DHT22;32476;50.002;11.854;2023-09-07T14:22:37;29.50;69.20
46730;DHT22;32476;50.002;11.854;2023-09-07T14:25:03;29.60;69.20
46730;DHT22;32476;50.002;11.854;2023-09-07T14:27:29;29.50;67.40
46730;DHT22;32476;50.002;11.854;2023-09-07T14:29:56;29.40;66.30
46730;DHT22;32476;50.002;11.854;2023-09-07T14:32:22;28.60;65.90
46730;DHT22;32476;50.002;11.854;2023-09-07T14:34:48;28.50;66.40
46730;DHT22;32476;50.002;11.854;2023-09-07T14:37:16;28.60;68.30
46730;DHT22;32476;50.002;11.854;2023-09-07T14:39:41;28.90;67.70
46730;DHT22;32476;50.002;11.854;2023-09-07T14:42:13;28.70;65.00
46730;DHT22;32476;50.002;11.854;2023-09-07T14:44:44;28.80;65.90
46730;DHT22;32476;50.002;11.854;2023-09-07T14:47:11;28.90;64.80
46730;DHT22;32476;50.002;11.854;2023-09-07T14:49:37;28.80;66.70
46730;DHT22;32476;50.002;11.854;2023-09-07T14:52:05;28.90;68.20
46730;DHT22;32476;50.002;11.854;2023-09-07T14:54:31;29.20;72.20
46730;DHT22;32476;50.002;11.854;2023-09-07T14:56:57;29.40;67.60
46730;DHT22;32476;50.002;11.854;2023-09-07T14:59:24;29.40;69.00
46730;DHT22;32476;50.002;11.854;2023-09-07T15:01:50;29.30;67.60
46730;DHT22;32476;50.002;11.854;2023-09-07T15:04:16;29.20;68.00
46730;DHT22;32476;50.002;11.854;2023-09-07T15:06:44;29.10;67.60
46730;DHT22;32476;50.002;11.854;2023-09-07T15:09:09;28.80;68.70
46730;DHT22;32476;50.002;11.854;2023-09-07T15:11:36;28.60;67.80
46730;DHT22;32476;50.002;11.854;2023-09-07T15:14:04;28.20;69.00
46730;DHT22;32476;50.002;11.854;2023-09-07T15:16:31;28.10;69.70
46730;DHT22;32476;50.002;11.854;2023-09-07T15:18:57;28.20;71.80
46730;DHT22;32476;50.002;11.854;2023-09-07T15:21:25;28.20;70.80
46730;DHT22;32476;50.002;11.854;2023-09-07T15:23:51;28.10;71.00